sensor_id;sensor_type;location;lat;lon;timestamp;pressure;altitude;pressure_sealevel;temperature;humidity
6032;BME280;3044;43.232;27.972;2023-06-24T00:01:03;45102.38;;;-143.84;75.61
6032;BME280;3044;43.232;27.972;2023-06-24T00:03:30;45077.63;;;-143.84;74.43
6032;BME280;3044;43.232;27.972;2023-06-24T00:06:03;45089.06;;;-143.84;72.53
6032;BME280;3044;43.232;27.972;2023-06-24T00:08:31;45070.00;;;-143.84;71.95
6032;BME280;3044;43.232;27.972;2023-06-24T00:11:00;45089.06;;;-143.84;70.73
6032;BME280;3044;43.232;27.972;2023-06-24T00:13:28;45100.47;;;-143.84;70.12
6032;BME280;3044;43.232;27.972;2023-06-24T00:15:55;45098.56;;;-143.84;69.86
6032;BME280;3044;43.232;27.972;2023-06-24T00:18:22;45073.81;;;-143.84;70.38
6032;BME280;3044;43.232;27.972;2023-06-24T00:20:55;45094.78;;;-143.84;70.29
6032;BME280;3044;43.232;27.972;2023-06-24T00:23:22;45089.06;;;-143.84;69.26
6032;BME280;3044;43.232;27.972;2023-06-24T00:25:52;45068.13;;;-143.84;69.44
6032;BME280;3044;43.232;27.972;2023-06-24T00:28:20;45092.88;;;-143.84;69.31
6032;BME280;3044;43.232;27.972;2023-06-24T00:30:47;45092.88;;;-143.84;70.77
6032;BME280;3044;43.232;27.972;2023-06-24T00:33:15;45075.72;;;-143.84;70.40
6032;BME280;3044;43.232;27.972;2023-06-24T00:35:45;45096.66;;;-143.84;72.01
6032;BME280;3044;43.232;27.972;2023-06-24T00:38:12;45083.34;;;-143.84;73.12
6032;BME280;3044;43.232;27.972;2023-06-24T00:40:39;45098.56;;;-143.84;73.42
6032;BME280;3044;43.232;27.972;2023-06-24T00:43:08;45073.81;;;-143.84;72.62
6032;BME280;3044;43.232;27.972;2023-06-24T00:45:37;45094.78;;;-143.84;71.68
6032;BME280;3044;43.232;27.972;2023-06-24T00:48:04;45058.59;;;-143.84;70.33
6032;BME280;3044;43.232;27.972;2023-06-24T00:50:32;45092.88;;;-143.84;69.68
6032;BME280;3044;43.232;27.972;2023-06-24T00:53:01;45071.91;;;-143.84;66.35
6032;BME280;3044;43.232;27.972;2023-06-24T00:55:28;45087.16;;;-143.84;65.95
6032;BME280;3044;43.232;27.972;2023-06-24T00:57:55;45089.06;;;-143.84;65.03
6032;BME280;3044;43.232;27.972;2023-06-24T01:00:26;45090.97;;;-143.84;63.75
6032;BME280;3044;43.232;27.972;2023-06-24T01:02:53;45079.53;;;-143.84;62.70
6032;BME280;3044;43.232;27.972;2023-06-24T01:05:21;45108.09;;;-143.84;62.30
6032;BME280;3044;43.232;27.972;2023-06-24T01:07:49;45075.72;;;-143.84;62.29
6032;BME280;3044;43.232;27.972;2023-06-24T01:10:21;45077.63;;;-143.84;62.20
6032;BME280;3044;43.232;27.972;2023-06-24T01:12:49;45087.16;;;-143.84;63.01
6032;BME280;3044;43.232;27.972;2023-06-24T01:15:17;45083.34;;;-143.84;62.94
6032;BME280;3044;43.232;27.972;2023-06-24T01:17:53;45070.00;;;-143.84;63.30
6032;BME280;3044;43.232;27.972;2023-06-24T01:20:25;45077.63;;;-143.84;62.83
6032;BME280;3044;43.232;27.972;2023-06-24T01:23:21;45092.88;;;-143.84;63.69
6032;BME280;3044;43.232;27.972;2023-06-24T01:26:31;45070.00;;;-143.84;63.99
6032;BME280;3044;43.232;27.972;2023-06-24T01:29:30;45071.91;;;-143.84;64.64
6032;BME280;3044;43.232;27.972;2023-06-24T01:32:05;45092.88;;;-143.84;64.26
6032;BME280;3044;43.232;27.972;2023-06-24T01:34:37;45096.66;;;-143.84;65.62
6032;BME280;3044;43.232;27.972;2023-06-24T01:37:11;45079.53;;;-143.84;66.60
6032;BME280;3044;43.232;27.972;2023-06-24T01:39:46;45092.88;;;-143.84;67.75
6032;BME280;3044;43.232;27.972;2023-06-24T01:42:16;45079.53;;;-143.84;68.50
6032;BME280;3044;43.232;27.972;2023-06-24T01:44:45;45073.81;;;-143.84;68.71
6032;BME280;3044;43.232;27.972;2023-06-24T01:47:18;45073.81;;;-143.84;68.70
6032;BME280;3044;43.232;27.972;2023-06-24T01:49:48;45102.38;;;-143.84;68.33
6032;BME280;3044;43.232;27.972;2023-06-24T01:52:17;45085.25;;;-143.84;68.32
6032;BME280;3044;43.232;27.972;2023-06-24T01:54:46;45083.34;;;-143.84;67.58
6032;BME280;3044;43.232;27.972;2023-06-24T01:57:15;45081.44;;;-143.84;66.74
6032;BME280;3044;43.232;27.972;2023-06-24T01:59:45;45064.31;;;-143.84;66.50
6032;BME280;3044;43.232;27.972;2023-06-24T02:02:15;45094.78;;;-143.84;66.66
6032;BME280;3044;43.232;27.972;2023-06-24T02:04:45;45071.91;;;-143.84;67.16
6032;BME280;3044;43.232;27.972;2023-06-24T02:07:13;45066.22;;;-143.84;67.46
6032;BME280;3044;43.232;27.972;2023-06-24T02:09:43;45083.34;;;-143.84;68.02
6032;BME280;3044;43.232;27.972;2023-06-24T02:12:11;45087.16;;;-143.84;69.11
6032;BME280;3044;43.232;27.972;2023-06-24T02:14:39;45087.16;;;-143.84;70.23
6032;BME280;3044;43.232;27.972;2023-06-24T02:17:10;45075.72;;;-143.84;71.40
6032;BME280;3044;43.232;27.972;2023-06-24T02:19:39;45085.25;;;-143.84;72.00
6032;BME280;3044;43.232;27.972;2023-06-24T02:22:07;45089.06;;;-143.84;72.13
6032;BME280;3044;43.232;27.972;2023-06-24T02:24:36;45106.19;;;-143.84;72.87
6032;BME280;3044;43.232;27.972;2023-06-24T02:27:06;45108.09;;;-143.84;73.31
6032;BME280;3044;43.232;27.972;2023-06-24T02:29:35;45077.63;;;-143.84;73.68
6032;BME280;3044;43.232;27.972;2023-06-24T02:32:04;45077.63;;;-143.84;74.30
6032;BME280;3044;43.232;27.972;2023-06-24T02:34:32;45083.34;;;-143.84;74.94
6032;BME280;3044;43.232;27.972;2023-06-24T02:37:01;45073.81;;;-143.84;75.35
6032;BME280;3044;43.232;27.972;2023-06-24T02:39:28;45079.53;;;-143.84;76.08
6032;BME280;3044;43.232;27.972;2023-06-24T02:41:55;45098.56;;;-143.84;76.32
6032;BME280;3044;43.232;27.972;2023-06-24T02:44:22;45117.63;;;-143.84;77.18
6032;BME280;3044;43.232;27.972;2023-06-24T02:46:50;45100.47;;;-143.84;77.62
6032;BME280;3044;43.232;27.972;2023-06-24T02:49:18;45064.31;;;-143.84;78.39
6032;BME280;3044;43.232;27.972;2023-06-24T02:51:48;45083.34;;;-143.84;80.49
6032;BME280;3044;43.232;27.972;2023-06-24T02:54:17;45085.25;;;-143.84;81.81
6032;BME280;3044;43.232;27.972;2023-06-24T02:56:44;45087.16;;;-143.84;83.40
6032;BME280;3044;43.232;27.972;2023-06-24T02:59:14;45092.88;;;-143.84;84.38
6032;BME280;3044;43.232;27.972;2023-06-24T03:01:41;45068.13;;;-143.84;85.14
6032;BME280;3044;43.232;27.972;2023-06-24T03:04:11;45062.41;;;-143.84;86.30
6032;BME280;3044;43.232;27.972;2023-06-24T03:06:39;45045.25;;;-143.84;86.32
6032;BME280;3044;43.232;27.972;2023-06-24T03:09:07;45056.69;;;-143.84;85.84
6032;BME280;3044;43.232;27.972;2023-06-24T03:11:41;45083.34;;;-143.84;84.62
6032;BME280;3044;43.232;27.972;2023-06-24T03:14:08;45094.78;;;-143.84;83.60
6032;BME280;3044;43.232;27.972;2023-06-24T03:16:36;45083.34;;;-143.84;83.19
6032;BME280;3044;43.232;27.972;2023-06-24T03:19:04;45056.69;;;-143.84;83.07
6032;BME280;3044;43.232;27.972;2023-06-24T03:21:33;45123.34;;;-143.84;81.07
6032;BME280;3044;43.232;27.972;2023-06-24T03:24:00;45102.38;;;-143.84;78.55
6032;BME280;3044;43.232;27.972;2023-06-24T03:26:32;45090.97;;;-143.84;77.91
6032;BME280;3044;43.232;27.972;2023-06-24T03:29:01;45064.31;;;-143.84;74.23
6032;BME280;3044;43.232;27.972;2023-06-24T03:31:28;45094.78;;;-143.84;72.73
6032;BME280;3044;43.232;27.972;2023-06-24T03:33:56;45090.97;;;-143.84;70.86
6032;BME280;3044;43.232;27.972;2023-06-24T03:36:23;45081.44;;;-143.84;68.48
6032;BME280;3044;43.232;27.972;2023-06-24T03:38:50;45071.91;;;-143.84;63.14
6032;BME280;3044;43.232;27.972;2023-06-24T03:41:18;45033.84;;;-143.84;56.38
6032;BME280;3044;43.232;27.972;2023-06-24T03:43:46;45031.94;;;-143.84;50.52
6032;BME280;3044;43.232;27.972;2023-06-24T03:46:14;45010.97;;;-143.84;48.85
6032;BME280;3044;43.232;27.972;2023-06-24T03:48:43;45022.41;;;-143.84;47.29
6032;BME280;3044;43.232;27.972;2023-06-24T03:51:10;45010.97;;;-143.84;45.24
6032;BME280;3044;43.232;27.972;2023-06-24T03:53:37;45020.50;;;-143.84;44.22
6032;BME280;3044;43.232;27.972;2023-06-24T03:56:04;45005.28;;;-143.84;43.96
6032;BME280;3044;43.232;27.972;2023-06-24T03:58:31;44990.03;;;-143.84;43.39
6032;BME280;3044;43.232;27.972;2023-06-24T04:01:00;45003.38;;;-143.84;42.83
6032;BME280;3044;43.232;27.972;2023-06-24T04:03:28;44982.41;;;-143.84;42.28
6032;BME280;3044;43.232;27.972;2023-06-24T04:05:57;44990.03;;;-143.84;42.29
6032;BME280;3044;43.232;27.972;2023-06-24T04:08:24;44969.09;;;-143.84;41.76
6032;BME280;3044;43.232;27.972;2023-06-24T04:10:55;44999.56;;;-143.84;41.26
6032;BME280;3044;43.232;27.972;2023-06-24T04:13:22;44969.09;;;-143.84;41.20
6032;BME280;3044;43.232;27.972;2023-06-24T04:15:49;44984.31;;;-143.84;41.00
6032;BME280;3044;43.232;27.972;2023-06-24T04:18:16;44957.66;;;-143.84;40.68
6032;BME280;3044;43.232;27.972;2023-06-24T04:20:45;44965.28;;;-143.84;40.65
6032;BME280;3044;43.232;27.972;2023-06-24T04:23:12;44932.91;;;-143.84;40.97
6032;BME280;3044;43.232;27.972;2023-06-24T04:25:40;44959.56;;;-143.84;40.92
6032;BME280;3044;43.232;27.972;2023-06-24T04:28:08;44963.38;;;-143.84;40.43
6032;BME280;3044;43.232;27.972;2023-06-24T04:30:35;44969.09;;;-143.84;40.00
6032;BME280;3044;43.232;27.972;2023-06-24T04:33:04;44976.72;;;-143.84;40.65
6032;BME280;3044;43.232;27.972;2023-06-24T04:35:31;44953.88;;;-143.84;40.24
6032;BME280;3044;43.232;27.972;2023-06-24T04:37:59;44940.53;;;-143.84;40.54
6032;BME280;3044;43.232;27.972;2023-06-24T04:40:27;44974.81;;;-143.84;39.63
6032;BME280;3044;43.232;27.972;2023-06-24T04:42:54;44972.91;;;-143.84;39.86
6032;BME280;3044;43.232;27.972;2023-06-24T04:45:21;44959.56;;;-143.84;40.48
6032;BME280;3044;43.232;27.972;2023-06-24T04:47:48;44934.81;;;-143.84;40.99
6032;BME280;3044;43.232;27.972;2023-06-24T04:50:16;44942.44;;;-143.84;41.18
6032;BME280;3044;43.232;27.972;2023-06-24T04:52:43;44972.91;;;-143.84;41.25
6032;BME280;3044;43.232;27.972;2023-06-24T04:55:11;44972.91;;;-143.84;41.27
6032;BME280;3044;43.232;27.972;2023-06-24T04:57:38;44959.56;;;-143.84;41.25
6032;BME280;3044;43.232;27.972;2023-06-24T05:00:08;44951.97;;;-143.84;42.20
6032;BME280;3044;43.232;27.972;2023-06-24T05:02:36;44951.97;;;-143.84;42.14
6032;BME280;3044;43.232;27.972;2023-06-24T05:05:03;44944.34;;;-143.84;42.82
6032;BME280;3044;43.232;27.972;2023-06-24T05:07:30;44932.91;;;-143.84;43.24
6032;BME280;3044;43.232;27.972;2023-06-24T05:09:57;44971.00;;;-143.84;43.73
6032;BME280;3044;43.232;27.972;2023-06-24T05:12:26;44984.31;;;-143.84;44.22
6032;BME280;3044;43.232;27.972;2023-06-24T05:14:53;44953.88;;;-143.84;45.78
6032;BME280;3044;43.232;27.972;2023-06-24T05:17:20;44957.66;;;-143.84;44.49
6032;BME280;3044;43.232;27.972;2023-06-24T05:19:47;44963.38;;;-143.84;44.61
6032;BME280;3044;43.232;27.972;2023-06-24T05:22:14;44957.66;;;-143.84;43.50
6032;BME280;3044;43.232;27.972;2023-06-24T05:24:41;44946.25;;;-143.84;43.93
6032;BME280;3044;43.232;27.972;2023-06-24T05:27:09;44969.09;;;-143.84;42.68
6032;BME280;3044;43.232;27.972;2023-06-24T05:29:37;44950.06;;;-143.84;44.85
6032;BME280;3044;43.232;27.972;2023-06-24T05:32:05;44965.28;;;-143.84;44.14
6032;BME280;3044;43.232;27.972;2023-06-24T05:34:32;44942.44;;;-143.84;42.98
6032;BME280;3044;43.232;27.972;2023-06-24T05:37:00;44948.16;;;-143.84;43.90
6032;BME280;3044;43.232;27.972;2023-06-24T05:39:27;44963.38;;;-143.84;42.75
6032;BME280;3044;43.232;27.972;2023-06-24T05:41:54;44974.81;;;-143.84;41.65
6032;BME280;3044;43.232;27.972;2023-06-24T05:44:22;44936.72;;;-143.84;41.78
6032;BME280;3044;43.232;27.972;2023-06-24T05:46:50;44934.81;;;-143.84;42.38
6032;BME280;3044;43.232;27.972;2023-06-24T05:49:18;44951.97;;;-143.84;43.17
6032;BME280;3044;43.232;27.972;2023-06-24T05:51:45;44980.53;;;-143.84;43.59
6032;BME280;3044;43.232;27.972;2023-06-24T05:54:12;44944.34;;;-143.84;42.44
6032;BME280;3044;43.232;27.972;2023-06-24T05:56:39;44963.38;;;-143.84;43.61
6032;BME280;3044;43.232;27.972;2023-06-24T05:59:06;44940.53;;;-143.84;42.59
6032;BME280;3044;43.232;27.972;2023-06-24T06:01:34;44944.34;;;-143.84;43.26
6032;BME280;3044;43.232;27.972;2023-06-24T06:04:02;44946.25;;;-143.84;42.99
6032;BME280;3044;43.232;27.972;2023-06-24T06:06:29;44955.75;;;-143.84;44.54
6032;BME280;3044;43.232;27.972;2023-06-24T06:08:57;44950.06;;;-143.84;44.80
6032;BME280;3044;43.232;27.972;2023-06-24T06:11:24;44946.25;;;-143.84;43.69
6032;BME280;3044;43.232;27.972;2023-06-24T06:13:51;44955.75;;;-143.84;43.10
6032;BME280;3044;43.232;27.972;2023-06-24T06:16:18;44931.00;;;-143.84;43.87
6032;BME280;3044;43.232;27.972;2023-06-24T06:18:46;44944.34;;;-143.84;42.04
6032;BME280;3044;43.232;27.972;2023-06-24T06:21:14;44919.59;;;-143.84;42.47
6032;BME280;3044;43.232;27.972;2023-06-24T06:23:42;44915.78;;;-143.84;40.27
6032;BME280;3044;43.232;27.972;2023-06-24T06:26:09;44940.53;;;-143.84;41.49
6032;BME280;3044;43.232;27.972;2023-06-24T06:28:36;44891.03;;;-143.84;42.04
6032;BME280;3044;43.232;27.972;2023-06-24T06:31:03;44932.91;;;-143.84;38.05
6032;BME280;3044;43.232;27.972;2023-06-24T06:33:30;44927.19;;;-143.84;41.44
6032;BME280;3044;43.232;27.972;2023-06-24T06:35:58;44919.59;;;-143.84;40.69
6032;BME280;3044;43.232;27.972;2023-06-24T06:38:27;44917.69;;;-143.84;41.53
6032;BME280;3044;43.232;27.972;2023-06-24T06:40:54;44908.16;;;-143.84;42.34
6032;BME280;3044;43.232;27.972;2023-06-24T06:43:21;44898.66;;;-143.84;39.00
6032;BME280;3044;43.232;27.972;2023-06-24T06:45:48;44915.78;;;-143.84;40.06
6032;BME280;3044;43.232;27.972;2023-06-24T06:48:15;44925.31;;;-143.84;39.23
6032;BME280;3044;43.232;27.972;2023-06-24T06:50:43;44929.09;;;-143.84;39.17
6032;BME280;3044;43.232;27.972;2023-06-24T06:53:10;44929.09;;;-143.84;39.09
6032;BME280;3044;43.232;27.972;2023-06-24T06:55:39;44953.88;;;-143.84;38.01
6032;BME280;3044;43.232;27.972;2023-06-24T06:58:08;44919.59;;;-143.84;39.38
6032;BME280;3044;43.232;27.972;2023-06-24T07:00:35;44953.88;;;-143.84;42.25
6032;BME280;3044;43.232;27.972;2023-06-24T07:03:03;44931.00;;;-143.84;43.32
6032;BME280;3044;43.232;27.972;2023-06-24T07:05:30;44976.72;;;-143.84;40.00
6032;BME280;3044;43.232;27.972;2023-06-24T07:07:57;44936.72;;;-143.84;38.00
6032;BME280;3044;43.232;27.972;2023-06-24T07:10:24;44948.16;;;-143.84;40.94
6032;BME280;3044;43.232;27.972;2023-06-24T07:12:53;44921.50;;;-143.84;38.56
6032;BME280;3044;43.232;27.972;2023-06-24T07:15:24;44910.06;;;-143.84;38.55
6032;BME280;3044;43.232;27.972;2023-06-24T07:17:51;44908.16;;;-143.84;41.12
6032;BME280;3044;43.232;27.972;2023-06-24T07:20:19;44913.88;;;-143.84;39.64
6032;BME280;3044;43.232;27.972;2023-06-24T07:22:46;44917.69;;;-143.84;36.48
6032;BME280;3044;43.232;27.972;2023-06-24T07:25:14;44950.06;;;-143.84;37.40
6032;BME280;3044;43.232;27.972;2023-06-24T07:27:41;44923.41;;;-143.84;37.18
6032;BME280;3044;43.232;27.972;2023-06-24T07:30:10;44931.00;;;-143.84;40.32
6032;BME280;3044;43.232;27.972;2023-06-24T07:32:37;44925.31;;;-143.84;39.28
6032;BME280;3044;43.232;27.972;2023-06-24T07:35:05;44919.59;;;-143.84;39.24
6032;BME280;3044;43.232;27.972;2023-06-24T07:37:34;44894.84;;;-143.84;41.77
6032;BME280;3044;43.232;27.972;2023-06-24T07:40:01;44904.34;;;-143.84;39.58
6032;BME280;3044;43.232;27.972;2023-06-24T07:42:30;44917.69;;;-143.84;38.67
6032;BME280;3044;43.232;27.972;2023-06-24T07:44:58;44931.00;;;-143.84;39.58
6032;BME280;3044;43.232;27.972;2023-06-24T07:47:26;44913.88;;;-143.84;40.23
6032;BME280;3044;43.232;27.972;2023-06-24T07:49:53;44902.44;;;-143.84;40.43
6032;BME280;3044;43.232;27.972;2023-06-24T07:52:20;44925.31;;;-143.84;43.50
6032;BME280;3044;43.232;27.972;2023-06-24T07:54:47;44940.53;;;-143.84;41.29
6032;BME280;3044;43.232;27.972;2023-06-24T07:57:15;44953.88;;;-143.84;41.49
6032;BME280;3044;43.232;27.972;2023-06-24T07:59:42;44908.16;;;-143.84;39.23
6032;BME280;3044;43.232;27.972;2023-06-24T08:02:09;44944.34;;;-143.84;41.63
6032;BME280;3044;43.232;27.972;2023-06-24T08:04:38;44921.50;;;-143.84;43.01
6032;BME280;3044;43.232;27.972;2023-06-24T08:07:05;44921.50;;;-143.84;41.13
6032;BME280;3044;43.232;27.972;2023-06-24T08:09:32;44934.81;;;-143.84;41.04
6032;BME280;3044;43.232;27.972;2023-06-24T08:11:59;44929.09;;;-143.84;39.92
6032;BME280;3044;43.232;27.972;2023-06-24T08:14:26;44932.91;;;-143.84;43.12
6032;BME280;3044;43.232;27.972;2023-06-24T08:16:54;44923.41;;;-143.84;42.45
6032;BME280;3044;43.232;27.972;2023-06-24T08:19:21;44953.88;;;-143.84;42.65
6032;BME280;3044;43.232;27.972;2023-06-24T08:21:49;44940.53;;;-143.84;42.75
6032;BME280;3044;43.232;27.972;2023-06-24T08:24:16;44959.56;;;-143.84;45.86
6032;BME280;3044;43.232;27.972;2023-06-24T08:26:44;44917.69;;;-143.84;41.23
6032;BME280;3044;43.232;27.972;2023-06-24T08:29:11;44915.78;;;-143.84;43.28
6032;BME280;3044;43.232;27.972;2023-06-24T08:31:38;44965.28;;;-143.84;42.17
6032;BME280;3044;43.232;27.972;2023-06-24T08:34:05;44921.50;;;-143.84;41.37
6032;BME280;3044;43.232;27.972;2023-06-24T08:36:33;44919.59;;;-143.84;43.96
6032;BME280;3044;43.232;27.972;2023-06-24T08:39:01;44896.75;;;-143.84;40.34
6032;BME280;3044;43.232;27.972;2023-06-24T08:41:28;44953.88;;;-143.84;42.19
6032;BME280;3044;43.232;27.972;2023-06-24T08:43:55;44959.56;;;-143.84;41.12
6032;BME280;3044;43.232;27.972;2023-06-24T08:46:24;44974.81;;;-143.84;40.09
6032;BME280;3044;43.232;27.972;2023-06-24T08:48:56;44919.59;;;-143.84;41.37
6032;BME280;3044;43.232;27.972;2023-06-24T08:51:27;44942.44;;;-143.84;40.23
6032;BME280;3044;43.232;27.972;2023-06-24T08:53:57;44951.97;;;-143.84;37.58
6032;BME280;3044;43.232;27.972;2023-06-24T08:56:26;44936.72;;;-143.84;37.99
6032;BME280;3044;43.232;27.972;2023-06-24T08:58:54;44965.28;;;-143.84;40.21
6032;BME280;3044;43.232;27.972;2023-06-24T09:01:21;44957.66;;;-143.84;37.37
6032;BME280;3044;43.232;27.972;2023-06-24T09:03:49;44951.97;;;-143.84;38.58
6032;BME280;3044;43.232;27.972;2023-06-24T09:06:16;44936.72;;;-143.84;42.03
6032;BME280;3044;43.232;27.972;2023-06-24T09:08:52;44932.91;;;-143.84;40.50
6032;BME280;3044;43.232;27.972;2023-06-24T09:11:22;44942.44;;;-143.84;35.96
6032;BME280;3044;43.232;27.972;2023-06-24T09:13:55;44923.41;;;-143.84;40.39
6032;BME280;3044;43.232;27.972;2023-06-24T09:16:23;44932.91;;;-143.84;37.22
6032;BME280;3044;43.232;27.972;2023-06-24T09:18:51;44906.25;;;-143.84;38.83
6032;BME280;3044;43.232;27.972;2023-06-24T09:21:22;44915.78;;;-143.84;40.23
6032;BME280;3044;43.232;27.972;2023-06-24T09:23:52;44932.91;;;-143.84;38.27
6032;BME280;3044;43.232;27.972;2023-06-24T09:26:20;44919.59;;;-143.84;38.89
6032;BME280;3044;43.232;27.972;2023-06-24T09:28:48;44953.88;;;-143.84;38.92
6032;BME280;3044;43.232;27.972;2023-06-24T09:31:17;44959.56;;;-143.84;37.86
6032;BME280;3044;43.232;27.972;2023-06-24T09:33:45;44974.81;;;-143.84;37.07
6032;BME280;3044;43.232;27.972;2023-06-24T09:36:12;44942.44;;;-143.84;40.48
6032;BME280;3044;43.232;27.972;2023-06-24T09:38:41;44921.50;;;-143.84;39.97
6032;BME280;3044;43.232;27.972;2023-06-24T09:41:10;44932.91;;;-143.84;36.48
6032;BME280;3044;43.232;27.972;2023-06-24T09:43:38;44944.34;;;-143.84;39.19
6032;BME280;3044;43.232;27.972;2023-06-24T09:46:07;44959.56;;;-143.84;40.59
6032;BME280;3044;43.232;27.972;2023-06-24T09:48:35;44950.06;;;-143.84;41.90
6032;BME280;3044;43.232;27.972;2023-06-24T09:51:04;44963.38;;;-143.84;42.53
6032;BME280;3044;43.232;27.972;2023-06-24T09:53:32;44938.63;;;-143.84;40.98
6032;BME280;3044;43.232;27.972;2023-06-24T09:56:00;44950.06;;;-143.84;43.30
6032;BME280;3044;43.232;27.972;2023-06-24T09:58:31;44971.00;;;-143.84;43.79
6032;BME280;3044;43.232;27.972;2023-06-24T10:01:02;44953.88;;;-143.84;41.42
6032;BME280;3044;43.232;27.972;2023-06-24T10:03:30;44999.56;;;-143.84;45.00
6032;BME280;3044;43.232;27.972;2023-06-24T10:06:00;44955.75;;;-143.84;46.96
6032;BME280;3044;43.232;27.972;2023-06-24T10:08:30;44963.38;;;-143.84;46.88
6032;BME280;3044;43.232;27.972;2023-06-24T10:10:58;44950.06;;;-143.84;46.48
6032;BME280;3044;43.232;27.972;2023-06-24T10:13:25;44931.00;;;-143.84;49.94
6032;BME280;3044;43.232;27.972;2023-06-24T10:15:53;44957.66;;;-143.84;50.14
6032;BME280;3044;43.232;27.972;2023-06-24T10:18:34;44944.34;;;-143.84;48.64
6032;BME280;3044;43.232;27.972;2023-06-24T10:21:03;44950.06;;;-143.84;48.36
6032;BME280;3044;43.232;27.972;2023-06-24T10:23:33;44961.47;;;-143.84;47.55
6032;BME280;3044;43.232;27.972;2023-06-24T10:26:00;44938.63;;;-143.84;49.31
6032;BME280;3044;43.232;27.972;2023-06-24T10:29:12;44988.13;;;-143.84;50.79
6032;BME280;3044;43.232;27.972;2023-06-24T10:31:55;44980.53;;;-143.84;49.99
6032;BME280;3044;43.232;27.972;2023-06-24T10:34:39;44976.72;;;-143.84;47.66
6032;BME280;3044;43.232;27.972;2023-06-24T10:37:13;44986.22;;;-143.84;50.66
6032;BME280;3044;43.232;27.972;2023-06-24T10:39:45;45009.09;;;-143.84;52.48
6032;BME280;3044;43.232;27.972;2023-06-24T10:42:36;44978.63;;;-143.84;52.57
6032;BME280;3044;43.232;27.972;2023-06-24T10:45:14;44957.66;;;-143.84;53.35
6032;BME280;3044;43.232;27.972;2023-06-24T10:47:43;44980.53;;;-143.84;54.29
6032;BME280;3044;43.232;27.972;2023-06-24T10:50:11;44961.47;;;-143.84;56.42
6032;BME280;3044;43.232;27.972;2023-06-24T10:52:41;44993.84;;;-143.84;55.66
6032;BME280;3044;43.232;27.972;2023-06-24T10:55:09;44972.91;;;-143.84;57.38
6032;BME280;3044;43.232;27.972;2023-06-24T10:57:36;44963.38;;;-143.84;58.66
6032;BME280;3044;43.232;27.972;2023-06-24T11:00:04;44974.81;;;-143.84;59.80
6032;BME280;3044;43.232;27.972;2023-06-24T11:02:31;44967.19;;;-143.84;61.61
6032;BME280;3044;43.232;27.972;2023-06-24T11:05:00;44974.81;;;-143.84;60.75
6032;BME280;3044;43.232;27.972;2023-06-24T11:07:28;44951.97;;;-143.84;56.48
6032;BME280;3044;43.232;27.972;2023-06-24T11:10:00;44990.03;;;-143.84;60.78
6032;BME280;3044;43.232;27.972;2023-06-24T11:12:30;44969.09;;;-143.84;63.42
6032;BME280;3044;43.232;27.972;2023-06-24T11:14:58;44972.91;;;-143.84;63.51
6032;BME280;3044;43.232;27.972;2023-06-24T11:17:27;44976.72;;;-143.84;62.88
6032;BME280;3044;43.232;27.972;2023-06-24T11:19:55;44982.41;;;-143.84;62.03
6032;BME280;3044;43.232;27.972;2023-06-24T11:22:22;44988.13;;;-143.84;62.64
6032;BME280;3044;43.232;27.972;2023-06-24T11:24:50;44972.91;;;-143.84;61.17
6032;BME280;3044;43.232;27.972;2023-06-24T11:27:24;44971.00;;;-143.84;59.39
6032;BME280;3044;43.232;27.972;2023-06-24T11:29:52;44990.03;;;-143.84;61.66
6032;BME280;3044;43.232;27.972;2023-06-24T11:32:19;44990.03;;;-143.84;60.36
6032;BME280;3044;43.232;27.972;2023-06-24T11:34:47;44950.06;;;-143.84;62.12
6032;BME280;3044;43.232;27.972;2023-06-24T11:37:15;44990.03;;;-143.84;61.71
6032;BME280;3044;43.232;27.972;2023-06-24T11:39:43;44965.28;;;-143.84;62.34
6032;BME280;3044;43.232;27.972;2023-06-24T11:42:11;44997.66;;;-143.84;62.05
6032;BME280;3044;43.232;27.972;2023-06-24T11:44:42;44984.31;;;-143.84;62.18
6032;BME280;3044;43.232;27.972;2023-06-24T11:47:10;44986.22;;;-143.84;64.31
6032;BME280;3044;43.232;27.972;2023-06-24T11:49:50;44986.22;;;-143.84;61.51
6032;BME280;3044;43.232;27.972;2023-06-24T11:52:18;44976.72;;;-143.84;63.28
6032;BME280;3044;43.232;27.972;2023-06-24T11:54:45;44990.03;;;-143.84;62.51
6032;BME280;3044;43.232;27.972;2023-06-24T11:57:16;45007.19;;;-143.84;64.19
6032;BME280;3044;43.232;27.972;2023-06-24T11:59:45;44991.94;;;-143.84;62.94
6032;BME280;3044;43.232;27.972;2023-06-24T12:02:13;44980.53;;;-143.84;65.77
6032;BME280;3044;43.232;27.972;2023-06-24T12:04:43;44993.84;;;-143.84;62.53
6032;BME280;3044;43.232;27.972;2023-06-24T12:07:11;45009.09;;;-143.84;61.72
6032;BME280;3044;43.232;27.972;2023-06-24T12:09:38;44982.41;;;-143.84;62.63
6032;BME280;3044;43.232;27.972;2023-06-24T12:12:06;45007.19;;;-143.84;64.22
6032;BME280;3044;43.232;27.972;2023-06-24T12:14:34;45014.78;;;-143.84;64.57
6032;BME280;3044;43.232;27.972;2023-06-24T12:17:02;44997.66;;;-143.84;63.23
6032;BME280;3044;43.232;27.972;2023-06-24T12:19:29;45010.97;;;-143.84;64.30
6032;BME280;3044;43.232;27.972;2023-06-24T12:21:57;44999.56;;;-143.84;63.60
6032;BME280;3044;43.232;27.972;2023-06-24T12:24:24;44982.41;;;-143.84;63.43
6032;BME280;3044;43.232;27.972;2023-06-24T12:26:51;44993.84;;;-143.84;63.77
6032;BME280;3044;43.232;27.972;2023-06-24T12:29:19;44963.38;;;-143.84;67.17
6032;BME280;3044;43.232;27.972;2023-06-24T12:31:46;44988.13;;;-143.84;65.49
6032;BME280;3044;43.232;27.972;2023-06-24T12:34:14;45005.28;;;-143.84;67.68
6032;BME280;3044;43.232;27.972;2023-06-24T12:36:41;45005.28;;;-143.84;58.83
6032;BME280;3044;43.232;27.972;2023-06-24T12:39:08;44988.13;;;-143.84;64.54
6032;BME280;3044;43.232;27.972;2023-06-24T12:41:36;44988.13;;;-143.84;63.96
6032;BME280;3044;43.232;27.972;2023-06-24T12:44:03;44999.56;;;-143.84;66.60
6032;BME280;3044;43.232;27.972;2023-06-24T12:46:30;44997.66;;;-143.84;64.42
6032;BME280;3044;43.232;27.972;2023-06-24T12:48:57;44972.91;;;-143.84;64.11
6032;BME280;3044;43.232;27.972;2023-06-24T12:51:25;44988.13;;;-143.84;65.81
6032;BME280;3044;43.232;27.972;2023-06-24T12:53:53;45007.19;;;-143.84;66.53
6032;BME280;3044;43.232;27.972;2023-06-24T12:56:20;44969.09;;;-143.84;66.81
6032;BME280;3044;43.232;27.972;2023-06-24T12:58:47;44991.94;;;-143.84;67.23